sensor_id;sensor_type;location;lat;lon;timestamp;temperature;humidity
57664;DHT22;43493;53.098;6.064;2023-06-04T00:00:43;12.40;99.90
57664;DHT22;43493;53.098;6.064;2023-06-04T00:03:09;12.30;99.90
57664;DHT22;43493;53.098;6.064;2023-06-04T00:05:34;12.30;99.90
57664;DHT22;43493;53.098;6.064;2023-06-04T00:08:00;12.30;99.90
57664;DHT22;43493;53.098;6.064;2023-06-04T00:10:26;12.20;99.90
57664;DHT22;43493;53.098;6.064;2023-06-04T00:12:52;12.20;99.90
57664;DHT22;43493;53.098;6.064;2023-06-04T00:15:17;12.10;99.90
57664;DHT22;43493;53.098;6.064;2023-06-04T00:17:44;12.10;99.90
57664;DHT22;43493;53.098;6.064;2023-06-04T00:20:10;12.10;99.90
57664;DHT22;43493;53.098;6.064;2023-06-04T00:22:36;12.00;99.90
57664;DHT22;43493;53.098;6.064;2023-06-04T00:25:02;12.00;99.90
57664;DHT22;43493;53.098;6.064;2023-06-04T00:27:28;12.00;99.90
57664;DHT22;43493;53.098;6.064;2023-06-04T00:29:54;11.90;99.90
57664;DHT22;43493;53.098;6.064;2023-06-04T00:32:20;11.90;99.90
57664;DHT22;43493;53.098;6.064;2023-06-04T00:34:56;12.00;99.90
57664;DHT22;43493;53.098;6.064;2023-06-04T00:37:26;12.00;99.90
57664;DHT22;43493;53.098;6.064;2023-06-04T00:39:52;12.20;99.90
57664;DHT22;43493;53.098;6.064;2023-06-04T00:42:18;12.20;99.90
57664;DHT22;43493;53.098;6.064;2023-06-04T00:44:44;12.10;99.90
57664;DHT22;43493;53.098;6.064;2023-06-04T00:47:11;12.10;99.90
57664;DHT22;43493;53.098;6.064;2023-06-04T00:49:38;12.00;99.90
57664;DHT22;43493;53.098;6.064;2023-06-04T00:52:04;11.90;99.90
57664;DHT22;43493;53.098;6.064;2023-06-04T00:54:31;11.90;99.90
57664;DHT22;43493;53.098;6.064;2023-06-04T00:56:59;11.90;99.90
57664;DHT22;43493;53.098;6.064;2023-06-04T00:59:25;11.80;99.90
57664;DHT22;43493;53.098;6.064;2023-06-04T01:02:05;11.80;99.90
57664;DHT22;43493;53.098;6.064;2023-06-04T01:04:53;11.80;99.90
57664;DHT22;43493;53.098;6.064;2023-06-04T01:07:21;11.80;99.90
57664;DHT22;43493;53.098;6.064;2023-06-04T01:09:49;11.80;99.90
57664;DHT22;43493;53.098;6.064;2023-06-04T01:12:15;11.80;99.90
57664;DHT22;43493;53.098;6.064;2023-06-04T01:14:41;11.70;99.90
57664;DHT22;43493;53.098;6.064;2023-06-04T01:20:07;11.70;99.90
57664;DHT22;43493;53.098;6.064;2023-06-04T01:22:44;11.70;99.90
57664;DHT22;43493;53.098;6.064;2023-06-04T01:25:21;11.70;99.90
57664;DHT22;43493;53.098;6.064;2023-06-04T01:27:54;11.70;99.90
57664;DHT22;43493;53.098;6.064;2023-06-04T01:30:26;11.70;99.90
57664;DHT22;43493;53.098;6.064;2023-06-04T01:32:54;11.70;99.90
57664;DHT22;43493;53.098;6.064;2023-06-04T01:35:20;11.70;99.90
57664;DHT22;43493;53.098;6.064;2023-06-04T01:37:46;11.70;99.90
57664;DHT22;43493;53.098;6.064;2023-06-04T01:40:13;11.70;99.90
57664;DHT22;43493;53.098;6.064;2023-06-04T01:42:43;11.70;99.90
57664;DHT22;43493;53.098;6.064;2023-06-04T01:45:10;11.70;99.90
57664;DHT22;43493;53.098;6.064;2023-06-04T01:47:36;11.70;99.90
57664;DHT22;43493;53.098;6.064;2023-06-04T01:50:03;11.70;99.90
57664;DHT22;43493;53.098;6.064;2023-06-04T01:52:29;11.70;99.90
57664;DHT22;43493;53.098;6.064;2023-06-04T01:54:55;11.70;99.90
57664;DHT22;43493;53.098;6.064;2023-06-04T01:57:21;11.70;99.90
57664;DHT22;43493;53.098;6.064;2023-06-04T01:59:47;11.70;99.90
57664;DHT22;43493;53.098;6.064;2023-06-04T02:02:14;11.60;99.90
57664;DHT22;43493;53.098;6.064;2023-06-04T02:04:40;11.60;99.90
57664;DHT22;43493;53.098;6.064;2023-06-04T02:07:10;11.60;99.90
57664;DHT22;43493;53.098;6.064;2023-06-04T02:09:36;11.60;99.90
57664;DHT22;43493;53.098;6.064;2023-06-04T02:12:02;11.60;99.90
57664;DHT22;43493;53.098;6.064;2023-06-04T02:14:28;11.70;99.90
57664;DHT22;43493;53.098;6.064;2023-06-04T02:16:54;11.70;99.90
57664;DHT22;43493;53.098;6.064;2023-06-04T02:19:24;11.70;99.90
57664;DHT22;43493;53.098;6.064;2023-06-04T02:21:52;11.70;99.90
57664;DHT22;43493;53.098;6.064;2023-06-04T02:24:18;11.70;99.90
57664;DHT22;43493;53.098;6.064;2023-06-04T02:26:43;11.70;99.90
57664;DHT22;43493;53.098;6.064;2023-06-04T02:29:09;11.70;99.90
57664;DHT22;43493;53.098;6.064;2023-06-04T02:31:35;11.60;99.90
57664;DHT22;43493;53.098;6.064;2023-06-04T02:34:00;11.70;99.90
57664;DHT22;43493;53.098;6.064;2023-06-04T02:36:26;11.60;99.90
57664;DHT22;43493;53.098;6.064;2023-06-04T02:38:52;11.70;99.90
57664;DHT22;43493;53.098;6.064;2023-06-04T02:41:18;11.70;99.90
57664;DHT22;43493;53.098;6.064;2023-06-04T02:43:44;11.70;99.90
57664;DHT22;43493;53.098;6.064;2023-06-04T02:46:09;11.70;99.90
57664;DHT22;43493;53.098;6.064;2023-06-04T02:48:35;11.70;99.90
57664;DHT22;43493;53.098;6.064;2023-06-04T02:51:01;11.60;99.90
57664;DHT22;43493;53.098;6.064;2023-06-04T02:53:27;11.60;99.90
57664;DHT22;43493;53.098;6.064;2023-06-04T02:55:52;11.60;99.90
57664;DHT22;43493;53.098;6.064;2023-06-04T02:58:18;11.50;99.90
57664;DHT22;43493;53.098;6.064;2023-06-04T03:00:44;11.50;99.90
57664;DHT22;43493;53.098;6.064;2023-06-04T03:03:10;11.50;99.90
57664;DHT22;43493;53.098;6.064;2023-06-04T03:05:36;11.40;99.90
57664;DHT22;43493;53.098;6.064;2023-06-04T03:08:02;11.40;99.90
57664;DHT22;43493;53.098;6.064;2023-06-04T03:10:29;11.30;99.90
57664;DHT22;43493;53.098;6.064;2023-06-04T03:12:55;11.20;99.90
57664;DHT22;43493;53.098;6.064;2023-06-04T03:15:21;11.20;99.90
57664;DHT22;43493;53.098;6.064;2023-06-04T03:17:46;11.20;99.90
57664;DHT22;43493;53.098;6.064;2023-06-04T03:20:12;11.20;99.90
57664;DHT22;43493;53.098;6.064;2023-06-04T03:22:38;11.10;99.90
57664;DHT22;43493;53.098;6.064;2023-06-04T03:25:04;11.10;99.90
57664;DHT22;43493;53.098;6.064;2023-06-04T03:27:31;11.20;99.90
57664;DHT22;43493;53.098;6.064;2023-06-04T03:29:57;11.10;99.90
57664;DHT22;43493;53.098;6.064;2023-06-04T03:32:23;11.10;99.90
57664;DHT22;43493;53.098;6.064;2023-06-04T03:34:49;11.10;99.90
57664;DHT22;43493;53.098;6.064;2023-06-04T03:37:16;11.10;99.90
57664;DHT22;43493;53.098;6.064;2023-06-04T03:39:41;11.00;99.90
57664;DHT22;43493;53.098;6.064;2023-06-04T03:42:07;11.10;99.90
57664;DHT22;43493;53.098;6.064;2023-06-04T03:44:33;11.10;99.90
57664;DHT22;43493;53.098;6.064;2023-06-04T03:46:58;11.30;99.90
57664;DHT22;43493;53.098;6.064;2023-06-04T03:49:24;11.30;99.90
57664;DHT22;43493;53.098;6.064;2023-06-04T03:51:50;11.30;99.90
57664;DHT22;43493;53.098;6.064;2023-06-04T03:54:16;11.30;99.90
57664;DHT22;43493;53.098;6.064;2023-06-04T03:56:44;11.30;99.90
57664;DHT22;43493;53.098;6.064;2023-06-04T03:59:09;11.20;99.90
57664;DHT22;43493;53.098;6.064;2023-06-04T04:01:36;11.20;99.90
57664;DHT22;43493;53.098;6.064;2023-06-04T04:04:01;11.20;99.90
57664;DHT22;43493;53.098;6.064;2023-06-04T04:06:27;11.10;99.90
57664;DHT22;43493;53.098;6.064;2023-06-04T04:08:53;11.10;99.90
57664;DHT22;43493;53.098;6.064;2023-06-04T04:11:19;11.20;99.90
57664;DHT22;43493;53.098;6.064;2023-06-04T04:13:45;11.20;99.90
57664;DHT22;43493;53.098;6.064;2023-06-04T04:16:11;11.20;99.90
57664;DHT22;43493;53.098;6.064;2023-06-04T04:18:37;11.20;99.90
57664;DHT22;43493;53.098;6.064;2023-06-04T04:21:04;11.20;99.90
57664;DHT22;43493;53.098;6.064;2023-06-04T04:23:30;11.20;99.90
57664;DHT22;43493;53.098;6.064;2023-06-04T04:25:58;11.30;99.90
57664;DHT22;43493;53.098;6.064;2023-06-04T04:28:27;11.30;99.90
57664;DHT22;43493;53.098;6.064;2023-06-04T04:30:55;11.40;99.90
57664;DHT22;43493;53.098;6.064;2023-06-04T04:33:28;11.40;99.90
57664;DHT22;43493;53.098;6.064;2023-06-04T04:35:58;11.50;99.90
57664;DHT22;43493;53.098;6.064;2023-06-04T04:38:25;11.50;99.90
57664;DHT22;43493;53.098;6.064;2023-06-04T04:40:51;11.60;99.90
57664;DHT22;43493;53.098;6.064;2023-06-04T04:43:34;11.60;99.90
57664;DHT22;43493;53.098;6.064;2023-06-04T04:46:00;11.70;99.90
57664;DHT22;43493;53.098;6.064;2023-06-04T04:48:26;11.80;99.90
57664;DHT22;43493;53.098;6.064;2023-06-04T04:50:53;11.90;99.90
57664;DHT22;43493;53.098;6.064;2023-06-04T04:53:19;12.00;99.90
57664;DHT22;43493;53.098;6.064;2023-06-04T04:55:45;12.10;99.90
57664;DHT22;43493;53.098;6.064;2023-06-04T04:58:11;12.20;99.90
57664;DHT22;43493;53.098;6.064;2023-06-04T05:00:36;12.20;99.90
57664;DHT22;43493;53.098;6.064;2023-06-04T05:03:02;12.40;99.90
57664;DHT22;43493;53.098;6.064;2023-06-04T05:05:28;12.50;99.90
57664;DHT22;43493;53.098;6.064;2023-06-04T05:07:54;12.60;99.90
57664;DHT22;43493;53.098;6.064;2023-06-04T05:10:19;12.60;99.90
57664;DHT22;43493;53.098;6.064;2023-06-04T05:12:56;12.80;99.90
57664;DHT22;43493;53.098;6.064;2023-06-04T05:15:22;12.90;99.90
57664;DHT22;43493;53.098;6.064;2023-06-04T05:17:48;13.00;99.90
57664;DHT22;43493;53.098;6.064;2023-06-04T05:20:14;13.10;99.90
57664;DHT22;43493;53.098;6.064;2023-06-04T05:22:41;13.20;99.90
57664;DHT22;43493;53.098;6.064;2023-06-04T05:25:08;13.30;99.90
57664;DHT22;43493;53.098;6.064;2023-06-04T05:27:34;13.50;99.90
57664;DHT22;43493;53.098;6.064;2023-06-04T05:30:01;13.60;99.90
57664;DHT22;43493;53.098;6.064;2023-06-04T05:32:29;13.70;99.90
57664;DHT22;43493;53.098;6.064;2023-06-04T05:34:58;13.80;99.90
57664;DHT22;43493;53.098;6.064;2023-06-04T05:37:25;13.90;99.90
57664;DHT22;43493;53.098;6.064;2023-06-04T05:39:56;14.00;99.90
57664;DHT22;43493;53.098;6.064;2023-06-04T05:42:23;14.20;99.90
57664;DHT22;43493;53.098;6.064;2023-06-04T05:44:49;14.30;99.90
57664;DHT22;43493;53.098;6.064;2023-06-04T05:47:15;14.60;99.90
57664;DHT22;43493;53.098;6.064;2023-06-04T05:49:42;15.50;99.90
57664;DHT22;43493;53.098;6.064;2023-06-04T05:52:08;16.70;99.90
57664;DHT22;43493;53.098;6.064;2023-06-04T05:54:34;17.50;99.90
57664;DHT22;43493;53.098;6.064;2023-06-04T05:56:59;18.40;99.90
57664;DHT22;43493;53.098;6.064;2023-06-04T05:59:25;19.00;99.90
57664;DHT22;43493;53.098;6.064;2023-06-04T06:01:51;19.60;99.90
57664;DHT22;43493;53.098;6.064;2023-06-04T06:04:16;20.40;99.90
57664;DHT22;43493;53.098;6.064;2023-06-04T06:06:42;20.70;99.90
57664;DHT22;43493;53.098;6.064;2023-06-04T06:09:14;21.20;99.90
57664;DHT22;43493;53.098;6.064;2023-06-04T06:11:40;21.30;99.90
57664;DHT22;43493;53.098;6.064;2023-06-04T06:14:06;21.50;99.90
57664;DHT22;43493;53.098;6.064;2023-06-04T06:16:32;21.70;99.90
57664;DHT22;43493;53.098;6.064;2023-06-04T06:18:59;22.10;99.90
57664;DHT22;43493;53.098;6.064;2023-06-04T06:21:25;21.90;98.90
57664;DHT22;43493;53.098;6.064;2023-06-04T06:23:51;21.90;99.90
57664;DHT22;43493;53.098;6.064;2023-06-04T06:26:17;22.40;98.60
57664;DHT22;43493;53.098;6.064;2023-06-04T06:28:43;22.20;97.20
57664;DHT22;43493;53.098;6.064;2023-06-04T06:31:09;22.50;95.20
57664;DHT22;43493;53.098;6.064;2023-06-04T06:33:35;22.60;89.00
57664;DHT22;43493;53.098;6.064;2023-06-04T06:36:12;22.80;94.50
57664;DHT22;43493;53.098;6.064;2023-06-04T06:38:38;23.20;92.10
57664;DHT22;43493;53.098;6.064;2023-06-04T06:41:04;23.40;88.90
57664;DHT22;43493;53.098;6.064;2023-06-04T06:43:30;23.50;78.70
57664;DHT22;43493;53.098;6.064;2023-06-04T06:45:57;23.80;83.50
57664;DHT22;43493;53.098;6.064;2023-06-04T06:48:23;24.00;76.70
57664;DHT22;43493;53.098;6.064;2023-06-04T06:50:48;24.20;73.40
57664;DHT22;43493;53.098;6.064;2023-06-04T06:53:14;24.10;69.80
57664;DHT22;43493;53.098;6.064;2023-06-04T06:55:40;24.40;69.10
57664;DHT22;43493;53.098;6.064;2023-06-04T06:58:06;24.50;68.00
57664;DHT22;43493;53.098;6.064;2023-06-04T07:00:31;24.70;64.40
57664;DHT22;43493;53.098;6.064;2023-06-04T07:03:00;25.10;63.40
57664;DHT22;43493;53.098;6.064;2023-06-04T07:05:26;25.60;58.80
57664;DHT22;43493;53.098;6.064;2023-06-04T07:07:52;26.00;57.00
57664;DHT22;43493;53.098;6.064;2023-06-04T07:10:18;26.30;54.00
57664;DHT22;43493;53.098;6.064;2023-06-04T07:12:44;26.30;54.70
57664;DHT22;43493;53.098;6.064;2023-06-04T07:15:10;26.40;53.80
57664;DHT22;43493;53.098;6.064;2023-06-04T07:17:36;26.40;52.70
57664;DHT22;43493;53.098;6.064;2023-06-04T07:20:02;26.50;52.90
57664;DHT22;43493;53.098;6.064;2023-06-04T07:22:32;26.20;51.80
57664;DHT22;43493;53.098;6.064;2023-06-04T07:24:58;26.60;52.00
57664;DHT22;43493;53.098;6.064;2023-06-04T07:27:23;26.40;51.20
57664;DHT22;43493;53.098;6.064;2023-06-04T07:29:49;27.10;50.50
57664;DHT22;43493;53.098;6.064;2023-06-04T07:32:15;27.00;49.40
57664;DHT22;43493;53.098;6.064;2023-06-04T07:34:41;27.40;48.40
57664;DHT22;43493;53.098;6.064;2023-06-04T07:37:06;26.80;47.40
57664;DHT22;43493;53.098;6.064;2023-06-04T07:39:35;26.70;47.80
57664;DHT22;43493;53.098;6.064;2023-06-04T07:42:00;26.50;47.80
57664;DHT22;43493;53.098;6.064;2023-06-04T07:44:26;26.10;47.50
57664;DHT22;43493;53.098;6.064;2023-06-04T07:46:52;26.20;48.10
57664;DHT22;43493;53.098;6.064;2023-06-04T07:49:18;26.40;47.90
57664;DHT22;43493;53.098;6.064;2023-06-04T07:51:43;26.80;48.00
57664;DHT22;43493;53.098;6.064;2023-06-04T07:54:09;27.30;46.00
57664;DHT22;43493;53.098;6.064;2023-06-04T07:56:35;27.20;46.00
57664;DHT22;43493;53.098;6.064;2023-06-04T07:59:01;27.40;45.30
57664;DHT22;43493;53.098;6.064;2023-06-04T08:01:27;27.20;45.50
57664;DHT22;43493;53.098;6.064;2023-06-04T08:03:53;27.00;45.30
57664;DHT22;43493;53.098;6.064;2023-06-04T08:06:18;26.80;44.10
57664;DHT22;43493;53.098;6.064;2023-06-04T08:08:45;27.00;45.10
57664;DHT22;43493;53.098;6.064;2023-06-04T08:11:15;26.70;44.90
57664;DHT22;43493;53.098;6.064;2023-06-04T08:13:41;26.60;45.20
57664;DHT22;43493;53.098;6.064;2023-06-04T08:16:07;26.50;45.70
57664;DHT22;43493;53.098;6.064;2023-06-04T08:18:38;26.60;45.60
57664;DHT22;43493;53.098;6.064;2023-06-04T08:21:04;26.90;45.20
57664;DHT22;43493;53.098;6.064;2023-06-04T08:23:31;26.80;44.80
57664;DHT22;43493;53.098;6.064;2023-06-04T08:25:57;26.70;44.20
57664;DHT22;43493;53.098;6.064;2023-06-04T08:28:24;26.30;44.30
57664;DHT22;43493;53.098;6.064;2023-06-04T08:30:50;26.10;44.60
57664;DHT22;43493;53.098;6.064;2023-06-04T08:33:16;26.10;44.30
57664;DHT22;43493;53.098;6.064;2023-06-04T08:35:42;25.70;45.10
57664;DHT22;43493;53.098;6.064;2023-06-04T08:38:07;25.60;45.90
57664;DHT22;43493;53.098;6.064;2023-06-04T08:40:33;25.70;46.60
57664;DHT22;43493;53.098;6.064;2023-06-04T08:43:00;25.60;46.60
57664;DHT22;43493;53.098;6.064;2023-06-04T08:45:26;25.30;46.80
57664;DHT22;43493;53.098;6.064;2023-06-04T08:47:53;24.80;47.60
57664;DHT22;43493;53.098;6.064;2023-06-04T08:50:23;24.30;47.40
57664;DHT22;43493;53.098;6.064;2023-06-04T08:52:53;23.50;47.90
57664;DHT22;43493;53.098;6.064;2023-06-04T08:55:23;23.20;48.50
57664;DHT22;43493;53.098;6.064;2023-06-04T08:57:51;22.80;48.80
57664;DHT22;43493;53.098;6.064;2023-06-04T09:00:18;22.50;49.50
57664;DHT22;43493;53.098;6.064;2023-06-04T09:02:45;22.50;50.10
57664;DHT22;43493;53.098;6.064;2023-06-04T09:05:17;22.40;50.00
57664;DHT22;43493;53.098;6.064;2023-06-04T09:07:45;22.00;50.30
57664;DHT22;43493;53.098;6.064;2023-06-04T09:10:13;21.70;50.60
57664;DHT22;43493;53.098;6.064;2023-06-04T09:12:42;21.40;51.40
57664;DHT22;43493;53.098;6.064;2023-06-04T09:15:11;21.10;52.50
57664;DHT22;43493;53.098;6.064;2023-06-04T09:17:37;21.20;53.60
57664;DHT22;43493;53.098;6.064;2023-06-04T09:20:03;21.10;53.40
57664;DHT22;43493;53.098;6.064;2023-06-04T09:22:35;21.20;53.40
57664;DHT22;43493;53.098;6.064;2023-06-04T09:25:04;21.10;53.90
57664;DHT22;43493;53.098;6.064;2023-06-04T09:27:41;21.00;55.00
57664;DHT22;43493;53.098;6.064;2023-06-04T09:30:07;21.10;56.10
57664;DHT22;43493;53.098;6.064;2023-06-04T09:32:35;21.10;56.20
57664;DHT22;43493;53.098;6.064;2023-06-04T09:35:21;20.80;55.80
57664;DHT22;43493;53.098;6.064;2023-06-04T09:37:57;20.80;57.90
57664;DHT22;43493;53.098;6.064;2023-06-04T09:40:23;20.90;58.20
57664;DHT22;43493;53.098;6.064;2023-06-04T09:42:50;20.90;58.10
57664;DHT22;43493;53.098;6.064;2023-06-04T09:45:30;20.80;57.40
57664;DHT22;43493;53.098;6.064;2023-06-04T09:47:59;20.60;55.90
57664;DHT22;43493;53.098;6.064;2023-06-04T09:50:27;20.50;57.10
57664;DHT22;43493;53.098;6.064;2023-06-04T09:52:54;20.30;58.30
57664;DHT22;43493;53.098;6.064;2023-06-04T09:55:19;20.20;58.70
57664;DHT22;43493;53.098;6.064;2023-06-04T09:57:50;20.20;58.70
57664;DHT22;43493;53.098;6.064;2023-06-04T10:00:18;20.20;58.00
57664;DHT22;43493;53.098;6.064;2023-06-04T10:02:45;20.20;58.10
57664;DHT22;43493;53.098;6.064;2023-06-04T10:05:13;20.10;58.20
57664;DHT22;43493;53.098;6.064;2023-06-04T10:07:45;20.20;56.90
57664;DHT22;43493;53.098;6.064;2023-06-04T10:10:15;20.20;56.80
57664;DHT22;43493;53.098;6.064;2023-06-04T10:12:42;20.00;59.10
57664;DHT22;43493;53.098;6.064;2023-06-04T10:15:12;20.10;61.20
57664;DHT22;43493;53.098;6.064;2023-06-04T10:17:39;20.00;63.30
57664;DHT22;43493;53.098;6.064;2023-06-04T10:20:08;20.00;62.50
57664;DHT22;43493;53.098;6.064;2023-06-04T10:22:38;20.00;63.50
57664;DHT22;43493;53.098;6.064;2023-06-04T10:25:04;19.80;66.60
57664;DHT22;43493;53.098;6.064;2023-06-04T10:27:30;19.70;69.40
57664;DHT22;43493;53.098;6.064;2023-06-04T10:29:57;19.80;73.60
57664;DHT22;43493;53.098;6.064;2023-06-04T10:32:27;19.80;75.40
57664;DHT22;43493;53.098;6.064;2023-06-04T10:34:53;19.90;76.30
57664;DHT22;43493;53.098;6.064;2023-06-04T10:37:24;19.90;75.70
57664;DHT22;43493;53.098;6.064;2023-06-04T10:39:51;19.90;77.20
57664;DHT22;43493;53.098;6.064;2023-06-04T10:42:18;19.80;78.70
57664;DHT22;43493;53.098;6.064;2023-06-04T10:44:48;19.70;79.00
57664;DHT22;43493;53.098;6.064;2023-06-04T10:49:54;19.80;80.40
57664;DHT22;43493;53.098;6.064;2023-06-04T10:52:21;19.70;79.60
57664;DHT22;43493;53.098;6.064;2023-06-04T10:54:47;19.60;82.20
57664;DHT22;43493;53.098;6.064;2023-06-04T10:57:20;19.60;83.50
57664;DHT22;43493;53.098;6.064;2023-06-04T10:59:56;19.70;82.60
57664;DHT22;43493;53.098;6.064;2023-06-04T11:02:22;19.60;82.00
57664;DHT22;43493;53.098;6.064;2023-06-04T11:05:05;19.60;82.30
57664;DHT22;43493;53.098;6.064;2023-06-04T11:07:44;19.70;82.30
57664;DHT22;43493;53.098;6.064;2023-06-04T11:10:15;19.70;84.40
57664;DHT22;43493;53.098;6.064;2023-06-04T11:12:48;19.60;81.80
57664;DHT22;43493;53.098;6.064;2023-06-04T11:15:16;19.60;83.10
57664;DHT22;43493;53.098;6.064;2023-06-04T11:17:55;19.70;81.60
57664;DHT22;43493;53.098;6.064;2023-06-04T11:20:24;19.60;82.60
57664;DHT22;43493;53.098;6.064;2023-06-04T11:22:57;19.60;83.50
57664;DHT22;43493;53.098;6.064;2023-06-04T11:25:25;19.60;83.80
57664;DHT22;43493;53.098;6.064;2023-06-04T11:27:55;19.60;83.40
57664;DHT22;43493;53.098;6.064;2023-06-04T11:30:21;19.60;84.60
57664;DHT22;43493;53.098;6.064;2023-06-04T11:32:48;19.40;84.50
57664;DHT22;43493;53.098;6.064;2023-06-04T11:35:14;19.40;84.80
57664;DHT22;43493;53.098;6.064;2023-06-04T11:37:40;19.50;85.20
57664;DHT22;43493;53.098;6.064;2023-06-04T11:40:19;19.60;86.00
57664;DHT22;43493;53.098;6.064;2023-06-04T11:42:48;19.60;82.10
57664;DHT22;43493;53.098;6.064;2023-06-04T11:45:20;19.60;83.10
57664;DHT22;43493;53.098;6.064;2023-06-04T11:47:56;19.50;81.00
57664;DHT22;43493;53.098;6.064;2023-06-04T11:50:25;19.40;81.40
57664;DHT22;43493;53.098;6.064;2023-06-04T11:52:52;19.30;80.10
57664;DHT22;43493;53.098;6.064;2023-06-04T11:55:18;19.30;82.10
57664;DHT22;43493;53.098;6.064;2023-06-04T11:57:47;19.20;83.50
57664;DHT22;43493;53.098;6.064;2023-06-04T12:00:15;19.20;82.80
57664;DHT22;43493;53.098;6.064;2023-06-04T12:02:55;19.20;85.30
57664;DHT22;43493;53.098;6.064;2023-06-04T12:05:22;19.20;86.20
57664;DHT22;43493;53.098;6.064;2023-06-04T12:07:50;19.20;86.50
57664;DHT22;43493;53.098;6.064;2023-06-04T12:10:20;19.20;86.60
57664;DHT22;43493;53.098;6.064;2023-06-04T12:12:46;19.20;86.50
57664;DHT22;43493;53.098;6.064;2023-06-04T12:15:18;19.20;87.30
57664;DHT22;43493;53.098;6.064;2023-06-04T12:17:54;19.20;88.70
57664;DHT22;43493;53.098;6.064;2023-06-04T12:20:46;19.20;90.10
57664;DHT22;43493;53.098;6.064;2023-06-04T12:23:20;19.30;88.40
57664;DHT22;43493;53.098;6.064;2023-06-04T12:25:50;19.20;87.10
57664;DHT22;43493;53.098;6.064;2023-06-04T12:28:19;19.20;87.70
57664;DHT22;43493;53.098;6.064;2023-06-04T12:30:45;19.20;88.60
57664;DHT22;43493;53.098;6.064;2023-06-04T12:33:12;19.30;90.00
57664;DHT22;43493;53.098;6.064;2023-06-04T12:35:37;19.20;89.30
57664;DHT22;43493;53.098;6.064;2023-06-04T12:38:06;19.30;90.60
57664;DHT22;43493;53.098;6.064;2023-06-04T12:40:34;19.20;88.40
57664;DHT22;43493;53.098;6.064;2023-06-04T12:43:00;19.20;90.10
57664;DHT22;43493;53.098;6.064;2023-06-04T12:45:26;19.20;91.00
57664;DHT22;43493;53.098;6.064;2023-06-04T12:47:51;19.20;91.70
57664;DHT22;43493;53.098;6.064;2023-06-04T12:50:17;19.20;91.90
57664;DHT22;43493;53.098;6.064;2023-06-04T12:52:43;19.20;92.10
57664;DHT22;43493;53.098;6.064;2023-06-04T12:55:09;19.20;92.50
57664;DHT22;43493;53.098;6.064;2023-06-04T12:57:35;19.10;92.50
57664;DHT22;43493;53.098;6.064;2023-06-04T13:00:00;19.10;92.10
57664;DHT22;43493;53.098;6.064;2023-06-04T13:02:26;19.00;92.30
57664;DHT22;43493;53.098;6.064;2023-06-04T13:04:52;19.00;92.50
57664;DHT22;43493;53.098;6.064;2023-06-04T13:07:21;19.00;93.10
57664;DHT22;43493;53.098;6.064;2023-06-04T13:09:47;19.10;93.50
57664;DHT22;43493;53.098;6.064;2023-06-04T13:12:13;19.10;92.50
57664;DHT22;43493;53.098;6.064;2023-06-04T13:14:39;19.00;93.10
57664;DHT22;43493;53.098;6.064;2023-06-04T13:17:04;18.90;95.50
57664;DHT22;43493;53.098;6.064;2023-06-04T13:19:30;18.90;94.80
57664;DHT22;43493;53.098;6.064;2023-06-04T13:21:56;19.00;94.10
57664;DHT22;43493;53.098;6.064;2023-06-04T13:24:23;19.00;93.60
57664;DHT22;43493;53.098;6.064;2023-06-04T13:26:48;18.90;93.00
57664;DHT22;43493;53.098;6.064;2023-06-04T13:29:14;18.90;93.20
57664;DHT22;43493;53.098;6.064;2023-06-04T13:31:41;18.90;92.60
57664;DHT22;43493;53.098;6.064;2023-06-04T13:34:07;18.90;93.00
57664;DHT22;43493;53.098;6.064;2023-06-04T13:36:33;18.80;93.20
57664;DHT22;43493;53.098;6.064;2023-06-04T13:38:58;18.70;93.20
57664;DHT22;43493;53.098;6.064;2023-06-04T13:41:24;18.70;93.40
57664;DHT22;43493;53.098;6.064;2023-06-04T13:43:50;18.70;93.60
57664;DHT22;43493;53.098;6.064;2023-06-04T13:46:16;18.80;93.40
57664;DHT22;43493;53.098;6.064;2023-06-04T13:48:42;18.80;92.70
57664;DHT22;43493;53.098;6.064;2023-06-04T13:51:07;18.90;92.00
57664;DHT22;43493;53.098;6.064;2023-06-04T13:53:33;18.80;91.90
57664;DHT22;43493;53.098;6.064;2023-06-04T13:55:59;18.80;92.20
57664;DHT22;43493;53.098;6.064;2023-06-04T13:58:25;18.70;91.30
57664;DHT22;43493;53.098;6.064;2023-06-04T14:00:51;18.70;92.10
57664;DHT22;43493;53.098;6.064;2023-06-04T14:03:16;18.70;91.60
57664;DHT22;43493;53.098;6.064;2023-06-04T14:05:42;18.60;92.10
57664;DHT22;43493;53.098;6.064;2023-06-04T14:08:08;18.60;91.70
57664;DHT22;43493;53.098;6.064;2023-06-04T14:10:34;18.60;92.40
57664;DHT22;43493;53.098;6.064;2023-06-04T14:13:01;18.50;91.90
57664;DHT22;43493;53.098;6.064;2023-06-04T14:15:27;18.50;92.10
57664;DHT22;43493;53.098;6.064;2023-06-04T14:17:53;18.60;92.30
57664;DHT22;43493;53.098;6.064;2023-06-04T14:20:18;18.50;92.10
57664;DHT22;43493;53.098;6.064;2023-06-04T14:22:44;18.50;92.30
57664;DHT22;43493;53.098;6.064;2023-06-04T14:25:10;18.30;93.50
57664;DHT22;43493;53.098;6.064;2023-06-04T14:27:35;18.30;94.20
57664;DHT22;43493;53.098;6.064;2023-06-04T14:30:02;18.40;94.70
57664;DHT22;43493;53.098;6.064;2023-06-04T14:32:28;18.40;94.70
57664;DHT22;43493;53.098;6.064;2023-06-04T14:34:54;18.50;94.20
57664;DHT22;43493;53.098;6.064;2023-06-04T14:37:21;18.50;94.40
57664;DHT22;43493;53.098;6.064;2023-06-04T14:39:47;18.50;94.10
57664;DHT22;43493;53.098;6.064;2023-06-04T14:42:13;18.50;94.90
57664;DHT22;43493;53.098;6.064;2023-06-04T14:44:39;18.50;95.70
57664;DHT22;43493;53.098;6.064;2023-06-04T14:47:05;18.50;97.00
57664;DHT22;43493;53.098;6.064;2023-06-04T14:49:31;18.40;95.40
57664;DHT22;43493;53.098;6.064;2023-06-04T14:51:56;18.50;96.20
57664;DHT22;43493;53.098;6.064;2023-06-04T14:54:22;18.50;96.10
57664;DHT22;43493;53.098;6.064;2023-06-04T14:56:48;18.50;97.10
57664;DHT22;43493;53.098;6.064;2023-06-04T14:59:13;18.60;96.70
57664;DHT22;43493;53.098;6.064;2023-06-04T15:01:39;18.40;96.90
57664;DHT22;43493;53.098;6.064;2023-06-04T15:04:07;18.50;97.40
57664;DHT22;43493;53.098;6.064;2023-06-04T15:06:33;18.50;97.70
57664;DHT22;43493;53.098;6.064;2023-06-04T15:08:59;18.50;98.10
57664;DHT22;43493;53.098;6.064;2023-06-04T15:11:25;18.60;98.30
57664;DHT22;43493;53.098;6.064;2023-06-04T15:13:52;18.40;98.30
57664;DHT22;43493;53.098;6.064;2023-06-04T15:16:19;18.30;99.40
57664;DHT22;43493;53.098;6.064;2023-06-04T15:18:45;18.20;99.30
57664;DHT22;43493;53.098;6.064;2023-06-04T15:21:11;18.20;99.40
57664;DHT22;43493;53.098;6.064;2023-06-04T15:23:37;18.20;98.90
57664;DHT22;43493;53.098;6.064;2023-06-04T15:26:02;18.10;99.40
57664;DHT22;43493;53.098;6.064;2023-06-04T15:28:28;18.10;99.50
57664;DHT22;43493;53.098;6.064;2023-06-04T15:30:54;18.00;99.90
57664;DHT22;43493;53.098;6.064;2023-06-04T15:33:20;17.90;99.90
57664;DHT22;43493;53.098;6.064;2023-06-04T15:35:45;17.90;99.90